sensor_id;sensor_type;location;lat;lon;timestamp;P1;durP1;ratioP1;P2;durP2;ratioP2
51824;SDS011;37879;52.986;6.282;2022-08-19T00:02:24;9.05;;;5.10;;
51824;SDS011;37879;52.986;6.282;2022-08-19T00:04:51;6.50;;;4.57;;
51824;SDS011;37879;52.986;6.282;2022-08-19T00:07:20;7.47;;;4.20;;
51824;SDS011;37879;52.986;6.282;2022-08-19T00:09:46;8.77;;;4.65;;
51824;SDS011;37879;52.986;6.282;2022-08-19T00:12:12;6.95;;;4.70;;
51824;SDS011;37879;52.986;6.282;2022-08-19T00:14:39;6.88;;;4.55;;
51824;SDS011;37879;52.986;6.282;2022-08-19T00:17:06;8.27;;;4.32;;
51824;SDS011;37879;52.986;6.282;2022-08-19T00:19:32;8.95;;;4.65;;
51824;SDS011;37879;52.986;6.282;2022-08-19T00:21:59;7.68;;;5.80;;
51824;SDS011;37879;52.986;6.282;2022-08-19T00:24:25;5.82;;;4.30;;
51824;SDS011;37879;52.986;6.282;2022-08-19T00:26:53;6.55;;;4.88;;
51824;SDS011;37879;52.986;6.282;2022-08-19T00:29:22;8.57;;;5.00;;
51824;SDS011;37879;52.986;6.282;2022-08-19T00:31:49;10.13;;;5.18;;
51824;SDS011;37879;52.986;6.282;2022-08-19T00:34:20;7.78;;;5.25;;
51824;SDS011;37879;52.986;6.282;2022-08-19T00:36:46;8.35;;;5.22;;
51824;SDS011;37879;52.986;6.282;2022-08-19T00:39:13;6.82;;;4.85;;
51824;SDS011;37879;52.986;6.282;2022-08-19T00:41:40;8.88;;;5.68;;
51824;SDS011;37879;52.986;6.282;2022-08-19T00:44:08;6.43;;;4.40;;
51824;SDS011;37879;52.986;6.282;2022-08-19T00:46:36;6.32;;;4.45;;
51824;SDS011;37879;52.986;6.282;2022-08-19T00:49:05;7.13;;;4.55;;
51824;SDS011;37879;52.986;6.282;2022-08-19T00:51:32;6.05;;;4.60;;
51824;SDS011;37879;52.986;6.282;2022-08-19T00:53:59;7.53;;;4.97;;
51824;SDS011;37879;52.986;6.282;2022-08-19T00:56:26;7.10;;;4.85;;
51824;SDS011;37879;52.986;6.282;2022-08-19T00:58:53;6.38;;;4.80;;
51824;SDS011;37879;52.986;6.282;2022-08-19T01:01:20;7.88;;;5.22;;
51824;SDS011;37879;52.986;6.282;2022-08-19T01:03:46;10.38;;;5.20;;
51824;SDS011;37879;52.986;6.282;2022-08-19T01:06:12;8.98;;;5.78;;
51824;SDS011;37879;52.986;6.282;2022-08-19T01:08:39;6.60;;;5.10;;
51824;SDS011;37879;52.986;6.282;2022-08-19T01:11:05;7.05;;;4.95;;
51824;SDS011;37879;52.986;6.282;2022-08-19T01:13:33;8.43;;;6.00;;
51824;SDS011;37879;52.986;6.282;2022-08-19T01:16:01;8.45;;;5.05;;
51824;SDS011;37879;52.986;6.282;2022-08-19T01:18:28;10.35;;;5.93;;
51824;SDS011;37879;52.986;6.282;2022-08-19T01:20:56;8.45;;;5.57;;
51824;SDS011;37879;52.986;6.282;2022-08-19T01:23:23;9.70;;;5.88;;
51824;SDS011;37879;52.986;6.282;2022-08-19T01:26:08;8.20;;;5.57;;
51824;SDS011;37879;52.986;6.282;2022-08-19T01:28:35;6.60;;;5.30;;
51824;SDS011;37879;52.986;6.282;2022-08-19T01:31:03;12.90;;;6.35;;
51824;SDS011;37879;52.986;6.282;2022-08-19T01:33:29;10.98;;;5.68;;
51824;SDS011;37879;52.986;6.282;2022-08-19T01:38:51;9.93;;;5.70;;
51824;SDS011;37879;52.986;6.282;2022-08-19T01:41:18;10.10;;;5.50;;
51824;SDS011;37879;52.986;6.282;2022-08-19T01:43:45;9.77;;;5.15;;
51824;SDS011;37879;52.986;6.282;2022-08-19T01:46:11;7.75;;;5.28;;
51824;SDS011;37879;52.986;6.282;2022-08-19T01:48:39;9.20;;;5.72;;
51824;SDS011;37879;52.986;6.282;2022-08-19T01:51:06;9.85;;;5.03;;
51824;SDS011;37879;52.986;6.282;2022-08-19T01:53:32;7.30;;;5.55;;
51824;SDS011;37879;52.986;6.282;2022-08-19T01:55:59;10.98;;;4.85;;
51824;SDS011;37879;52.986;6.282;2022-08-19T01:58:27;10.27;;;5.70;;
51824;SDS011;37879;52.986;6.282;2022-08-19T02:00:55;6.95;;;4.47;;
51824;SDS011;37879;52.986;6.282;2022-08-19T02:03:21;6.07;;;4.10;;
51824;SDS011;37879;52.986;6.282;2022-08-19T02:05:53;8.90;;;5.18;;
51824;SDS011;37879;52.986;6.282;2022-08-19T02:08:19;9.70;;;5.03;;
51824;SDS011;37879;52.986;6.282;2022-08-19T02:10:45;8.43;;;5.28;;
51824;SDS011;37879;52.986;6.282;2022-08-19T02:13:11;6.95;;;5.07;;
51824;SDS011;37879;52.986;6.282;2022-08-19T02:15:38;7.78;;;4.50;;
51824;SDS011;37879;52.986;6.282;2022-08-19T02:18:05;5.53;;;3.85;;
51824;SDS011;37879;52.986;6.282;2022-08-19T02:20:31;8.40;;;3.70;;
51824;SDS011;37879;52.986;6.282;2022-08-19T02:22:57;6.47;;;4.20;;
51824;SDS011;37879;52.986;6.282;2022-08-19T02:25:23;8.57;;;4.47;;
51824;SDS011;37879;52.986;6.282;2022-08-19T02:27:49;5.90;;;4.30;;
51824;SDS011;37879;52.986;6.282;2022-08-19T02:30:16;8.02;;;4.57;;
51824;SDS011;37879;52.986;6.282;2022-08-19T02:32:44;6.80;;;4.43;;
51824;SDS011;37879;52.986;6.282;2022-08-19T02:35:11;7.82;;;4.28;;
51824;SDS011;37879;52.986;6.282;2022-08-19T02:37:37;6.40;;;3.72;;
51824;SDS011;37879;52.986;6.282;2022-08-19T02:40:22;6.05;;;3.65;;
51824;SDS011;37879;52.986;6.282;2022-08-19T02:42:48;8.82;;;5.50;;
51824;SDS011;37879;52.986;6.282;2022-08-19T02:45:14;5.90;;;4.13;;
51824;SDS011;37879;52.986;6.282;2022-08-19T02:47:40;5.88;;;4.32;;
51824;SDS011;37879;52.986;6.282;2022-08-19T02:50:10;6.72;;;4.50;;
51824;SDS011;37879;52.986;6.282;2022-08-19T02:52:36;8.30;;;4.68;;
51824;SDS011;37879;52.986;6.282;2022-08-19T02:55:02;5.20;;;3.30;;
51824;SDS011;37879;52.986;6.282;2022-08-19T02:57:29;6.55;;;4.80;;
51824;SDS011;37879;52.986;6.282;2022-08-19T02:59:57;7.07;;;4.35;;
51824;SDS011;37879;52.986;6.282;2022-08-19T03:02:23;8.18;;;4.90;;
51824;SDS011;37879;52.986;6.282;2022-08-19T03:04:49;5.35;;;3.60;;
51824;SDS011;37879;52.986;6.282;2022-08-19T03:07:16;7.53;;;4.10;;
51824;SDS011;37879;52.986;6.282;2022-08-19T03:09:43;7.45;;;4.93;;
51824;SDS011;37879;52.986;6.282;2022-08-19T03:12:09;7.75;;;4.90;;
51824;SDS011;37879;52.986;6.282;2022-08-19T03:14:36;6.88;;;5.15;;
51824;SDS011;37879;52.986;6.282;2022-08-19T03:17:03;7.05;;;4.50;;
51824;SDS011;37879;52.986;6.282;2022-08-19T03:19:30;4.95;;;3.83;;
51824;SDS011;37879;52.986;6.282;2022-08-19T03:21:56;8.57;;;4.90;;
51824;SDS011;37879;52.986;6.282;2022-08-19T03:24:23;7.53;;;4.75;;
51824;SDS011;37879;52.986;6.282;2022-08-19T03:26:51;7.38;;;4.80;;
51824;SDS011;37879;52.986;6.282;2022-08-19T03:29:19;7.90;;;5.13;;
51824;SDS011;37879;52.986;6.282;2022-08-19T03:31:46;11.88;;;6.22;;
51824;SDS011;37879;52.986;6.282;2022-08-19T03:34:13;6.20;;;4.30;;
51824;SDS011;37879;52.986;6.282;2022-08-19T03:36:39;7.15;;;4.82;;
51824;SDS011;37879;52.986;6.282;2022-08-19T03:39:05;5.88;;;3.85;;
51824;SDS011;37879;52.986;6.282;2022-08-19T03:41:36;6.50;;;3.90;;
51824;SDS011;37879;52.986;6.282;2022-08-19T03:44:03;6.18;;;3.78;;
51824;SDS011;37879;52.986;6.282;2022-08-19T03:46:30;6.20;;;4.47;;
51824;SDS011;37879;52.986;6.282;2022-08-19T03:48:57;5.32;;;4.30;;
51824;SDS011;37879;52.986;6.282;2022-08-19T03:51:25;7.03;;;4.38;;
51824;SDS011;37879;52.986;6.282;2022-08-19T03:53:52;8.23;;;4.93;;
51824;SDS011;37879;52.986;6.282;2022-08-19T03:56:18;7.13;;;4.88;;
51824;SDS011;37879;52.986;6.282;2022-08-19T03:58:45;9.35;;;5.45;;
51824;SDS011;37879;52.986;6.282;2022-08-19T04:01:12;9.13;;;5.40;;
51824;SDS011;37879;52.986;6.282;2022-08-19T04:03:39;9.85;;;5.88;;
51824;SDS011;37879;52.986;6.282;2022-08-19T04:08:39;8.63;;;4.90;;
51824;SDS011;37879;52.986;6.282;2022-08-19T04:11:09;11.43;;;5.53;;
51824;SDS011;37879;52.986;6.282;2022-08-19T04:13:35;11.45;;;6.20;;
51824;SDS011;37879;52.986;6.282;2022-08-19T04:16:01;8.43;;;5.60;;
51824;SDS011;37879;52.986;6.282;2022-08-19T04:18:28;10.18;;;6.00;;
51824;SDS011;37879;52.986;6.282;2022-08-19T04:20:58;9.23;;;5.72;;
51824;SDS011;37879;52.986;6.282;2022-08-19T04:23:24;12.18;;;7.20;;
51824;SDS011;37879;52.986;6.282;2022-08-19T04:25:50;8.88;;;6.15;;
51824;SDS011;37879;52.986;6.282;2022-08-19T04:28:16;7.88;;;5.63;;
51824;SDS011;37879;52.986;6.282;2022-08-19T04:30:46;8.32;;;5.97;;
51824;SDS011;37879;52.986;6.282;2022-08-19T04:33:13;9.70;;;6.30;;
51824;SDS011;37879;52.986;6.282;2022-08-19T04:35:41;9.88;;;6.82;;
51824;SDS011;37879;52.986;6.282;2022-08-19T04:38:08;8.45;;;5.90;;
51824;SDS011;37879;52.986;6.282;2022-08-19T04:40:39;10.35;;;6.88;;
51824;SDS011;37879;52.986;6.282;2022-08-19T04:43:24;9.30;;;6.28;;
51824;SDS011;37879;52.986;6.282;2022-08-19T04:45:50;9.82;;;6.05;;
51824;SDS011;37879;52.986;6.282;2022-08-19T04:48:16;11.85;;;6.68;;
51824;SDS011;37879;52.986;6.282;2022-08-19T04:50:47;9.98;;;6.38;;
51824;SDS011;37879;52.986;6.282;2022-08-19T04:53:13;11.45;;;7.55;;
51824;SDS011;37879;52.986;6.282;2022-08-19T04:55:41;12.57;;;7.32;;
51824;SDS011;37879;52.986;6.282;2022-08-19T04:58:07;12.90;;;7.47;;
51824;SDS011;37879;52.986;6.282;2022-08-19T05:00:33;11.93;;;7.47;;
51824;SDS011;37879;52.986;6.282;2022-08-19T05:02:59;10.50;;;7.05;;
51824;SDS011;37879;52.986;6.282;2022-08-19T05:05:25;12.40;;;7.88;;
51824;SDS011;37879;52.986;6.282;2022-08-19T05:07:52;12.50;;;6.78;;
51824;SDS011;37879;52.986;6.282;2022-08-19T05:10:18;11.90;;;7.70;;
51824;SDS011;37879;52.986;6.282;2022-08-19T05:12:44;12.65;;;6.88;;
51824;SDS011;37879;52.986;6.282;2022-08-19T05:15:10;13.02;;;7.38;;
51824;SDS011;37879;52.986;6.282;2022-08-19T05:17:36;10.43;;;6.97;;
51824;SDS011;37879;52.986;6.282;2022-08-19T05:20:03;13.25;;;8.82;;
51824;SDS011;37879;52.986;6.282;2022-08-19T05:22:48;12.15;;;7.88;;
51824;SDS011;37879;52.986;6.282;2022-08-19T05:25:16;13.15;;;8.30;;
51824;SDS011;37879;52.986;6.282;2022-08-19T05:27:43;13.65;;;8.55;;
51824;SDS011;37879;52.986;6.282;2022-08-19T05:30:10;15.70;;;9.35;;
51824;SDS011;37879;52.986;6.282;2022-08-19T05:32:37;15.38;;;9.55;;
51824;SDS011;37879;52.986;6.282;2022-08-19T05:35:04;14.50;;;9.63;;
51824;SDS011;37879;52.986;6.282;2022-08-19T05:37:30;15.80;;;9.63;;
51824;SDS011;37879;52.986;6.282;2022-08-19T05:39:56;18.10;;;10.45;;
51824;SDS011;37879;52.986;6.282;2022-08-19T05:42:22;17.48;;;10.23;;
51824;SDS011;37879;52.986;6.282;2022-08-19T05:44:48;11.90;;;8.73;;
51824;SDS011;37879;52.986;6.282;2022-08-19T05:47:15;14.55;;;9.68;;
51824;SDS011;37879;52.986;6.282;2022-08-19T05:49:43;16.52;;;9.75;;
51824;SDS011;37879;52.986;6.282;2022-08-19T05:52:11;18.05;;;10.68;;
51824;SDS011;37879;52.986;6.282;2022-08-19T05:54:38;15.05;;;10.15;;
51824;SDS011;37879;52.986;6.282;2022-08-19T05:57:07;15.50;;;10.50;;
51824;SDS011;37879;52.986;6.282;2022-08-19T05:59:33;17.27;;;11.60;;
51824;SDS011;37879;52.986;6.282;2022-08-19T06:02:03;16.80;;;11.07;;
51824;SDS011;37879;52.986;6.282;2022-08-19T06:04:29;19.02;;;12.32;;
51824;SDS011;37879;52.986;6.282;2022-08-19T06:06:55;16.85;;;10.82;;
51824;SDS011;37879;52.986;6.282;2022-08-19T06:09:23;18.42;;;12.57;;
51824;SDS011;37879;52.986;6.282;2022-08-19T06:11:53;16.25;;;11.38;;
51824;SDS011;37879;52.986;6.282;2022-08-19T06:14:26;15.70;;;9.90;;
51824;SDS011;37879;52.986;6.282;2022-08-19T06:16:52;16.30;;;11.73;;
51824;SDS011;37879;52.986;6.282;2022-08-19T06:19:19;17.13;;;12.50;;
51824;SDS011;37879;52.986;6.282;2022-08-19T06:21:47;15.52;;;11.38;;
51824;SDS011;37879;52.986;6.282;2022-08-19T06:24:14;18.55;;;12.27;;
51824;SDS011;37879;52.986;6.282;2022-08-19T06:26:42;18.60;;;11.98;;
51824;SDS011;37879;52.986;6.282;2022-08-19T06:29:09;18.15;;;11.10;;
51824;SDS011;37879;52.986;6.282;2022-08-19T06:31:36;19.13;;;11.25;;
51824;SDS011;37879;52.986;6.282;2022-08-19T06:34:04;18.17;;;12.13;;
51824;SDS011;37879;52.986;6.282;2022-08-19T06:36:32;16.95;;;11.52;;
51824;SDS011;37879;52.986;6.282;2022-08-19T06:38:59;16.35;;;11.20;;
51824;SDS011;37879;52.986;6.282;2022-08-19T06:41:26;16.60;;;11.05;;
51824;SDS011;37879;52.986;6.282;2022-08-19T06:43:53;19.30;;;11.75;;
51824;SDS011;37879;52.986;6.282;2022-08-19T06:46:22;17.67;;;10.77;;
51824;SDS011;37879;52.986;6.282;2022-08-19T06:48:48;18.02;;;12.27;;
51824;SDS011;37879;52.986;6.282;2022-08-19T06:51:15;13.07;;;10.63;;
51824;SDS011;37879;52.986;6.282;2022-08-19T06:53:47;17.23;;;12.25;;
51824;SDS011;37879;52.986;6.282;2022-08-19T06:56:14;16.00;;;10.05;;
51824;SDS011;37879;52.986;6.282;2022-08-19T06:58:41;14.13;;;10.70;;
51824;SDS011;37879;52.986;6.282;2022-08-19T07:01:07;14.57;;;11.25;;
51824;SDS011;37879;52.986;6.282;2022-08-19T07:03:34;15.07;;;10.60;;
51824;SDS011;37879;52.986;6.282;2022-08-19T07:06:04;15.73;;;11.02;;
51824;SDS011;37879;52.986;6.282;2022-08-19T07:08:31;14.30;;;11.30;;
51824;SDS011;37879;52.986;6.282;2022-08-19T07:10:58;16.85;;;11.38;;
51824;SDS011;37879;52.986;6.282;2022-08-19T07:13:25;20.17;;;12.15;;
51824;SDS011;37879;52.986;6.282;2022-08-19T07:15:51;16.17;;;11.43;;
51824;SDS011;37879;52.986;6.282;2022-08-19T07:18:18;17.90;;;12.18;;
51824;SDS011;37879;52.986;6.282;2022-08-19T07:20:45;17.80;;;11.93;;
51824;SDS011;37879;52.986;6.282;2022-08-19T07:23:11;13.73;;;10.93;;
51824;SDS011;37879;52.986;6.282;2022-08-19T07:25:38;15.50;;;11.43;;
51824;SDS011;37879;52.986;6.282;2022-08-19T07:28:04;15.57;;;11.05;;
51824;SDS011;37879;52.986;6.282;2022-08-19T07:30:32;14.57;;;11.30;;
51824;SDS011;37879;52.986;6.282;2022-08-19T07:32:58;17.25;;;13.10;;
51824;SDS011;37879;52.986;6.282;2022-08-19T07:35:24;16.15;;;11.70;;
51824;SDS011;37879;52.986;6.282;2022-08-19T07:37:51;15.73;;;11.00;;
51824;SDS011;37879;52.986;6.282;2022-08-19T07:40:17;13.93;;;10.73;;
51824;SDS011;37879;52.986;6.282;2022-08-19T07:42:43;13.48;;;9.15;;
51824;SDS011;37879;52.986;6.282;2022-08-19T07:45:10;12.75;;;10.10;;
51824;SDS011;37879;52.986;6.282;2022-08-19T07:47:36;13.50;;;10.20;;
51824;SDS011;37879;52.986;6.282;2022-08-19T07:50:03;12.85;;;10.50;;
51824;SDS011;37879;52.986;6.282;2022-08-19T07:52:29;17.38;;;10.88;;
51824;SDS011;37879;52.986;6.282;2022-08-19T07:54:56;12.60;;;10.38;;
51824;SDS011;37879;52.986;6.282;2022-08-19T07:57:22;12.82;;;9.15;;
51824;SDS011;37879;52.986;6.282;2022-08-19T07:59:48;14.43;;;11.02;;
51824;SDS011;37879;52.986;6.282;2022-08-19T08:02:14;13.65;;;10.70;;
51824;SDS011;37879;52.986;6.282;2022-08-19T08:04:40;16.08;;;10.52;;
51824;SDS011;37879;52.986;6.282;2022-08-19T08:07:30;16.27;;;10.55;;
51824;SDS011;37879;52.986;6.282;2022-08-19T08:10:14;16.42;;;11.43;;
51824;SDS011;37879;52.986;6.282;2022-08-19T08:12:41;14.32;;;10.90;;
51824;SDS011;37879;52.986;6.282;2022-08-19T08:15:09;14.00;;;10.90;;
51824;SDS011;37879;52.986;6.282;2022-08-19T08:17:36;11.98;;;10.02;;
51824;SDS011;37879;52.986;6.282;2022-08-19T08:20:04;13.07;;;10.30;;
51824;SDS011;37879;52.986;6.282;2022-08-19T08:22:32;15.05;;;11.95;;
51824;SDS011;37879;52.986;6.282;2022-08-19T08:25:18;12.68;;;9.68;;
51824;SDS011;37879;52.986;6.282;2022-08-19T08:27:44;14.70;;;10.05;;
51824;SDS011;37879;52.986;6.282;2022-08-19T08:30:18;15.18;;;11.77;;
51824;SDS011;37879;52.986;6.282;2022-08-19T08:32:45;12.32;;;9.90;;
51824;SDS011;37879;52.986;6.282;2022-08-19T08:35:12;14.07;;;10.15;;
51824;SDS011;37879;52.986;6.282;2022-08-19T08:37:39;12.00;;;9.95;;
51824;SDS011;37879;52.986;6.282;2022-08-19T08:40:07;14.98;;;11.27;;
51824;SDS011;37879;52.986;6.282;2022-08-19T08:42:36;13.30;;;10.50;;
51824;SDS011;37879;52.986;6.282;2022-08-19T08:45:06;13.60;;;10.80;;
51824;SDS011;37879;52.986;6.282;2022-08-19T08:47:38;14.45;;;12.27;;
51824;SDS011;37879;52.986;6.282;2022-08-19T08:50:10;15.73;;;11.88;;
51824;SDS011;37879;52.986;6.282;2022-08-19T08:52:41;17.63;;;12.48;;
51824;SDS011;37879;52.986;6.282;2022-08-19T08:55:11;18.08;;;11.82;;
51824;SDS011;37879;52.986;6.282;2022-08-19T09:00:56;17.67;;;12.18;;
51824;SDS011;37879;52.986;6.282;2022-08-19T09:03:15;16.23;;;13.13;;
51824;SDS011;37879;52.986;6.282;2022-08-19T09:05:52;17.35;;;12.88;;
51824;SDS011;37879;52.986;6.282;2022-08-19T09:08:33;17.92;;;13.02;;
51824;SDS011;37879;52.986;6.282;2022-08-19T09:11:03;17.13;;;14.25;;
51824;SDS011;37879;52.986;6.282;2022-08-19T09:16:16;16.08;;;13.05;;
51824;SDS011;37879;52.986;6.282;2022-08-19T09:18:47;16.73;;;13.80;;
51824;SDS011;37879;52.986;6.282;2022-08-19T09:21:14;16.58;;;13.43;;
51824;SDS011;37879;52.986;6.282;2022-08-19T09:23:41;14.85;;;12.00;;
51824;SDS011;37879;52.986;6.282;2022-08-19T09:26:12;17.13;;;12.10;;
51824;SDS011;37879;52.986;6.282;2022-08-19T09:28:43;17.50;;;13.95;;
51824;SDS011;37879;52.986;6.282;2022-08-19T09:31:13;18.98;;;12.77;;
51824;SDS011;37879;52.986;6.282;2022-08-19T09:33:39;16.92;;;14.23;;
51824;SDS011;37879;52.986;6.282;2022-08-19T09:36:10;16.50;;;13.98;;
51824;SDS011;37879;52.986;6.282;2022-08-19T09:38:36;17.35;;;13.55;;
51824;SDS011;37879;52.986;6.282;2022-08-19T09:41:09;17.08;;;12.40;;
51824;SDS011;37879;52.986;6.282;2022-08-19T09:43:37;21.17;;;13.43;;
51824;SDS011;37879;52.986;6.282;2022-08-19T09:46:04;16.83;;;12.98;;
51824;SDS011;37879;52.986;6.282;2022-08-19T09:48:37;15.40;;;12.77;;
51824;SDS011;37879;52.986;6.282;2022-08-19T09:53:30;14.80;;;12.98;;
51824;SDS011;37879;52.986;6.282;2022-08-19T09:55:56;16.20;;;14.13;;
51824;SDS011;37879;52.986;6.282;2022-08-19T09:58:22;17.08;;;13.30;;
51824;SDS011;37879;52.986;6.282;2022-08-19T10:00:57;16.52;;;14.25;;
51824;SDS011;37879;52.986;6.282;2022-08-19T10:03:24;19.67;;;14.95;;
51824;SDS011;37879;52.986;6.282;2022-08-19T10:05:50;19.40;;;16.02;;
51824;SDS011;37879;52.986;6.282;2022-08-19T10:08:17;18.70;;;15.43;;
51824;SDS011;37879;52.986;6.282;2022-08-19T10:10:45;17.85;;;15.32;;
51824;SDS011;37879;52.986;6.282;2022-08-19T10:13:12;22.77;;;17.60;;
51824;SDS011;37879;52.986;6.282;2022-08-19T10:15:38;18.50;;;15.80;;
51824;SDS011;37879;52.986;6.282;2022-08-19T10:18:05;20.23;;;17.17;;
51824;SDS011;37879;52.986;6.282;2022-08-19T10:20:32;19.45;;;16.00;;
51824;SDS011;37879;52.986;6.282;2022-08-19T10:23:00;18.55;;;15.85;;
51824;SDS011;37879;52.986;6.282;2022-08-19T10:25:27;19.45;;;15.98;;
51824;SDS011;37879;52.986;6.282;2022-08-19T10:27:53;16.23;;;14.52;;
51824;SDS011;37879;52.986;6.282;2022-08-19T10:30:19;19.60;;;15.63;;
51824;SDS011;37879;52.986;6.282;2022-08-19T10:32:46;20.52;;;16.38;;
51824;SDS011;37879;52.986;6.282;2022-08-19T10:35:13;20.13;;;16.23;;
51824;SDS011;37879;52.986;6.282;2022-08-19T10:37:39;18.63;;;16.63;;
51824;SDS011;37879;52.986;6.282;2022-08-19T10:40:07;16.98;;;15.20;;
51824;SDS011;37879;52.986;6.282;2022-08-19T10:42:35;17.45;;;14.93;;
51824;SDS011;37879;52.986;6.282;2022-08-19T10:45:02;17.20;;;13.43;;
51824;SDS011;37879;52.986;6.282;2022-08-19T10:47:28;15.27;;;13.65;;
51824;SDS011;37879;52.986;6.282;2022-08-19T10:49:54;15.07;;;12.40;;
51824;SDS011;37879;52.986;6.282;2022-08-19T10:52:43;15.93;;;11.67;;
51824;SDS011;37879;52.986;6.282;2022-08-19T10:55:09;11.88;;;9.55;;
51824;SDS011;37879;52.986;6.282;2022-08-19T10:57:56;11.93;;;9.63;;
51824;SDS011;37879;52.986;6.282;2022-08-19T11:00:23;12.45;;;10.30;;
51824;SDS011;37879;52.986;6.282;2022-08-19T11:02:51;14.35;;;11.25;;
51824;SDS011;37879;52.986;6.282;2022-08-19T11:05:17;13.30;;;10.98;;
51824;SDS011;37879;52.986;6.282;2022-08-19T11:07:44;13.77;;;10.80;;
51824;SDS011;37879;52.986;6.282;2022-08-19T11:10:11;11.65;;;9.15;;
51824;SDS011;37879;52.986;6.282;2022-08-19T11:12:38;9.93;;;8.45;;
51824;SDS011;37879;52.986;6.282;2022-08-19T11:15:08;10.75;;;7.13;;
51824;SDS011;37879;52.986;6.282;2022-08-19T11:17:37;12.63;;;8.48;;
51824;SDS011;37879;52.986;6.282;2022-08-19T11:20:09;11.90;;;6.68;;
51824;SDS011;37879;52.986;6.282;2022-08-19T11:22:35;10.05;;;6.85;;
51824;SDS011;37879;52.986;6.282;2022-08-19T11:25:01;8.20;;;6.70;;
51824;SDS011;37879;52.986;6.282;2022-08-19T11:27:28;8.48;;;6.90;;
51824;SDS011;37879;52.986;6.282;2022-08-19T11:29:55;8.70;;;6.88;;
51824;SDS011;37879;52.986;6.282;2022-08-19T11:32:21;8.57;;;5.72;;
51824;SDS011;37879;52.986;6.282;2022-08-19T11:34:47;12.18;;;8.60;;
51824;SDS011;37879;52.986;6.282;2022-08-19T11:37:14;11.50;;;8.13;;
51824;SDS011;37879;52.986;6.282;2022-08-19T11:39:40;13.20;;;7.18;;
51824;SDS011;37879;52.986;6.282;2022-08-19T11:42:07;13.10;;;9.07;;
51824;SDS011;37879;52.986;6.282;2022-08-19T11:44:52;13.55;;;8.65;;
51824;SDS011;37879;52.986;6.282;2022-08-19T11:47:18;11.07;;;8.27;;
51824;SDS011;37879;52.986;6.282;2022-08-19T11:49:45;13.57;;;9.32;;
51824;SDS011;37879;52.986;6.282;2022-08-19T11:52:11;9.05;;;8.10;;
51824;SDS011;37879;52.986;6.282;2022-08-19T11:54:37;8.77;;;6.90;;
51824;SDS011;37879;52.986;6.282;2022-08-19T11:57:04;9.43;;;6.22;;
51824;SDS011;37879;52.986;6.282;2022-08-19T11:59:30;10.02;;;7.45;;
51824;SDS011;37879;52.986;6.282;2022-08-19T12:01:56;9.23;;;7.90;;
51824;SDS011;37879;52.986;6.282;2022-08-19T12:04:22;10.07;;;7.00;;
51824;SDS011;37879;52.986;6.282;2022-08-19T12:06:48;11.05;;;8.43;;
51824;SDS011;37879;52.986;6.282;2022-08-19T12:09:15;12.82;;;9.25;;
51824;SDS011;37879;52.986;6.282;2022-08-19T12:11:42;10.77;;;9.52;;
51824;SDS011;37879;52.986;6.282;2022-08-19T12:14:09;12.88;;;9.02;;
51824;SDS011;37879;52.986;6.282;2022-08-19T12:16:36;14.25;;;10.32;;
51824;SDS011;37879;52.986;6.282;2022-08-19T12:19:03;15.27;;;12.00;;
51824;SDS011;37879;52.986;6.282;2022-08-19T12:21:31;15.25;;;11.15;;
51824;SDS011;37879;52.986;6.282;2022-08-19T12:23:57;15.52;;;12.30;;
51824;SDS011;37879;52.986;6.282;2022-08-19T12:26:24;14.88;;;12.13;;
51824;SDS011;37879;52.986;6.282;2022-08-19T12:28:51;13.95;;;10.73;;
51824;SDS011;37879;52.986;6.282;2022-08-19T12:31:17;15.52;;;12.43;;
51824;SDS011;37879;52.986;6.282;2022-08-19T12:33:45;12.65;;;11.25;;
51824;SDS011;37879;52.986;6.282;2022-08-19T12:36:12;14.38;;;10.57;;
51824;SDS011;37879;52.986;6.282;2022-08-19T12:38:38;13.82;;;11.70;;
51824;SDS011;37879;52.986;6.282;2022-08-19T12:41:05;11.73;;;10.35;;
51824;SDS011;37879;52.986;6.282;2022-08-19T12:43:35;16.38;;;14.05;;
51824;SDS011;37879;52.986;6.282;2022-08-19T12:46:03;17.52;;;15.68;;
51824;SDS011;37879;52.986;6.282;2022-08-19T12:48:29;22.33;;;18.35;;
51824;SDS011;37879;52.986;6.282;2022-08-19T12:50:55;21.85;;;16.75;;
51824;SDS011;37879;52.986;6.282;2022-08-19T12:53:22;18.30;;;16.17;;
51824;SDS011;37879;52.986;6.282;2022-08-19T12:55:54;20.52;;;16.85;;
51824;SDS011;37879;52.986;6.282;2022-08-19T12:58:21;20.70;;;16.40;;
51824;SDS011;37879;52.986;6.282;2022-08-19T13:00:48;17.10;;;14.52;;
51824;SDS011;37879;52.986;6.282;2022-08-19T13:03:14;18.13;;;13.80;;
51824;SDS011;37879;52.986;6.282;2022-08-19T13:05:40;23.45;;;17.05;;
51824;SDS011;37879;52.986;6.282;2022-08-19T13:08:07;23.90;;;18.33;;
51824;SDS011;37879;52.986;6.282;2022-08-19T13:10:34;21.15;;;14.80;;
51824;SDS011;37879;52.986;6.282;2022-08-19T13:13:01;23.75;;;17.65;;
51824;SDS011;37879;52.986;6.282;2022-08-19T13:15:28;21.23;;;16.38;;
51824;SDS011;37879;52.986;6.282;2022-08-19T13:17:56;20.75;;;15.77;;
51824;SDS011;37879;52.986;6.282;2022-08-19T13:20:23;28.63;;;15.85;;
51824;SDS011;37879;52.986;6.282;2022-08-19T13:22:49;19.58;;;14.52;;
51824;SDS011;37879;52.986;6.282;2022-08-19T13:25:16;19.15;;;14.45;;
51824;SDS011;37879;52.986;6.282;2022-08-19T13:27:44;21.63;;;14.73;;
51824;SDS011;37879;52.986;6.282;2022-08-19T13:30:12;18.98;;;14.25;;
51824;SDS011;37879;52.986;6.282;2022-08-19T13:32:57;17.20;;;11.43;;
51824;SDS011;37879;52.986;6.282;2022-08-19T13:35:43;16.90;;;12.15;;
51824;SDS011;37879;52.986;6.282;2022-08-19T13:38:10;15.70;;;12.25;;
51824;SDS011;37879;52.986;6.282;2022-08-19T13:40:36;18.85;;;13.60;;
51824;SDS011;37879;52.986;6.282;2022-08-19T13:43:03;16.40;;;13.07;;
51824;SDS011;37879;52.986;6.282;2022-08-19T13:45:30;20.05;;;15.45;;
51824;SDS011;37879;52.986;6.282;2022-08-19T13:48:00;20.33;;;14.15;;
51824;SDS011;37879;52.986;6.282;2022-08-19T13:50:30;17.80;;;14.73;;
51824;SDS011;37879;52.986;6.282;2022-08-19T13:52:56;21.27;;;14.93;;
51824;SDS011;37879;52.986;6.282;2022-08-19T13:55:23;24.23;;;15.68;;
51824;SDS011;37879;52.986;6.282;2022-08-19T13:57:50;25.13;;;14.25;;
51824;SDS011;37879;52.986;6.282;2022-08-19T14:00:18;24.63;;;16.05;;
51824;SDS011;37879;52.986;6.282;2022-08-19T14:02:45;20.35;;;15.18;;
51824;SDS011;37879;52.986;6.282;2022-08-19T14:05:13;25.17;;;16.90;;
51824;SDS011;37879;52.986;6.282;2022-08-19T14:07:39;20.63;;;14.25;;
51824;SDS011;37879;52.986;6.282;2022-08-19T14:10:06;26.13;;;15.68;;
51824;SDS011;37879;52.986;6.282;2022-08-19T14:12:34;25.25;;;13.43;;
51824;SDS011;37879;52.986;6.282;2022-08-19T14:15:00;26.52;;;12.38;;
51824;SDS011;37879;52.986;6.282;2022-08-19T14:17:28;12.38;;;9.55;;
51824;SDS011;37879;52.986;6.282;2022-08-19T14:20:02;11.23;;;7.65;;
51824;SDS011;37879;52.986;6.282;2022-08-19T14:22:32;7.35;;;5.78;;
51824;SDS011;37879;52.986;6.282;2022-08-19T14:24:58;9.50;;;6.78;;
51824;SDS011;37879;52.986;6.282;2022-08-19T14:27:24;5.15;;;4.50;;
51824;SDS011;37879;52.986;6.282;2022-08-19T14:29:53;5.20;;;2.95;;
51824;SDS011;37879;52.986;6.282;2022-08-19T14:32:20;3.70;;;2.80;;
51824;SDS011;37879;52.986;6.282;2022-08-19T14:34:46;3.78;;;2.80;;
51824;SDS011;37879;52.986;6.282;2022-08-19T14:37:13;2.42;;;1.92;;
51824;SDS011;37879;52.986;6.282;2022-08-19T14:39:43;2.55;;;1.38;;
51824;SDS011;37879;52.986;6.282;2022-08-19T14:42:10;2.67;;;1.63;;
51824;SDS011;37879;52.986;6.282;2022-08-19T14:44:37;2.58;;;1.40;;
51824;SDS011;37879;52.986;6.282;2022-08-19T14:47:03;1.67;;;1.58;;
51824;SDS011;37879;52.986;6.282;2022-08-19T14:49:29;2.75;;;2.00;;
51824;SDS011;37879;52.986;6.282;2022-08-19T14:51:55;3.67;;;2.75;;